JST140 YSSY-YBBN
Flight info
| Callsign | JST140 |
|---|---|
| Flight time | N/A |
| Altitude | 35000 |
| Route | OLSEM Y193 BANDA H252 GOMOL |
| Aircraft | A321/M-SDE3FGHIRWY/LB1 |
Departure
| Time | 2026-05-07 11:03 |
|---|---|
| Airport | Sydney Kingsford Smith International Airport (YSSY) |
Arrival
| Time | N/A |
|---|---|
| Airport | Brisbane International Airport (YBBN) |
| Time | Latitude | Longitude | Altitude | Speed | Heading |
|---|---|---|---|---|---|
| 2026-05-07 10:30 | -33.93512 | 151.17682 | 30 ft | 0 kts | 101° |
| 2026-05-07 10:51 | -33.93509 | 151.17657 | 30 ft | 4 kts | 101° |
| 2026-05-07 10:51 | -33.93504 | 151.17629 | 28 ft | 2 kts | 100° |
| 2026-05-07 10:52 | -33.93496 | 151.17601 | 30 ft | 4 kts | 131° |
| 2026-05-07 10:52 | -33.93476 | 151.17583 | 30 ft | 4 kts | 164° |
| 2026-05-07 10:52 | -33.93469 | 151.17581 | 30 ft | 0 kts | 168° |
| 2026-05-07 10:55 | -33.93472 | 151.17582 | 30 ft | 1 kts | 168° |
| 2026-05-07 10:55 | -33.93491 | 151.17587 | 30 ft | 5 kts | 168° |
| 2026-05-07 10:56 | -33.93535 | 151.17598 | 30 ft | 7 kts | 168° |
| 2026-05-07 10:56 | -33.93587 | 151.17611 | 30 ft | 8 kts | 168° |
| 2026-05-07 10:56 | -33.93644 | 151.17633 | 30 ft | 9 kts | 154° |
| 2026-05-07 10:56 | -33.93703 | 151.17670 | 30 ft | 10 kts | 156° |
| 2026-05-07 10:57 | -33.93773 | 151.17692 | 30 ft | 11 kts | 167° |
| 2026-05-07 10:57 | -33.93840 | 151.17732 | 30 ft | 11 kts | 117° |
| 2026-05-07 10:57 | -33.93829 | 151.17824 | 30 ft | 12 kts | 75° |
| 2026-05-07 10:57 | -33.93807 | 151.17920 | 30 ft | 12 kts | 75° |
| 2026-05-07 10:58 | -33.93782 | 151.18025 | 30 ft | 14 kts | 73° |
| 2026-05-07 10:58 | -33.93756 | 151.18137 | 30 ft | 14 kts | 73° |
| 2026-05-07 10:58 | -33.93727 | 151.18258 | 30 ft | 16 kts | 75° |
| 2026-05-07 10:58 | -33.93696 | 151.18389 | 30 ft | 17 kts | 73° |
| 2026-05-07 10:59 | -33.93663 | 151.18526 | 30 ft | 18 kts | 74° |
| 2026-05-07 10:59 | -33.93629 | 151.18670 | 30 ft | 18 kts | 74° |
| 2026-05-07 10:59 | -33.93596 | 151.18815 | 30 ft | 17 kts | 79° |
| 2026-05-07 10:59 | -33.93632 | 151.18930 | 29 ft | 15 kts | 142° |
| 2026-05-07 11:00 | -33.93663 | 151.18945 | 28 ft | 0 kts | 163° |
| 2026-05-07 11:01 | -33.93673 | 151.18949 | 27 ft | 5 kts | 163° |
| 2026-05-07 11:01 | -33.93742 | 151.18942 | 27 ft | 13 kts | 207° |
| 2026-05-07 11:02 | -33.93772 | 151.18896 | 28 ft | 0 kts | 250° |
| 2026-05-07 11:02 | -33.93773 | 151.18894 | 28 ft | 1 kts | 250° |
| 2026-05-07 11:02 | -33.93776 | 151.18884 | 25 ft | 2 kts | 251° |
| 2026-05-07 11:03 | -33.93819 | 151.18698 | 26 ft | 57 kts | 255° |
| 2026-05-07 11:03 | -33.94000 | 151.17926 | 29 ft | 132 kts | 254° |
| 2026-05-07 11:03 | -33.94246 | 151.16665 | 445 ft | 161 kts | 261° |
| 2026-05-07 11:03 | -33.94377 | 151.15317 | 1465 ft | 159 kts | 263° |
| 2026-05-07 11:04 | -33.94381 | 151.14034 | 2631 ft | 148 kts | 261° |
| 2026-05-07 11:04 | -33.94341 | 151.12760 | 3475 ft | 159 kts | 262° |
| 2026-05-07 11:04 | -33.94313 | 151.11376 | 3948 ft | 172 kts | 265° |
| 2026-05-07 11:04 | -33.93871 | 151.09921 | 4275 ft | 201 kts | 296° |
| 2026-05-07 11:05 | -33.92790 | 151.08790 | 4871 ft | 215 kts | 322° |
| 2026-05-07 11:05 | -33.91266 | 151.08184 | 5098 ft | 251 kts | 352° |
| 2026-05-07 11:05 | -33.89511 | 151.08515 | 5810 ft | 264 kts | 19° |
| 2026-05-07 11:05 | -33.87922 | 151.09721 | 6636 ft | 277 kts | 44° |
| 2026-05-07 11:06 | -33.86626 | 151.11528 | 7268 ft | 296 kts | 57° |
| 2026-05-07 11:06 | -33.85519 | 151.13732 | 7650 ft | 320 kts | 64° |
| 2026-05-07 11:06 | -33.84482 | 151.16297 | 7299 ft | 358 kts | 69° |